.
WxDataArchive / Data Records for 2007-09-18
2007-09-17 September 2007 2007-09-19

Data Records for Tuesday, 18 September 2007

Time	Temp	Chill	HIndex	Humid	Dewpt	 Wind 	HiWind	WindDir	Rain 	Barom 
-----	----	-----	------	-----	-----	------	------	-------	-----	----- 
00:00	58.0	58.0	58.0	69	47.9	0	0	---	0.00	30.143 
00:05	57.6	57.6	57.6	70	47.9	0	0	---	0.00	30.141 
00:10	57.3	57.3	57.3	72	48.3	0	0	---	0.00	30.143 
00:15	57.0	57.0	57.0	72	48.1	0	0	---	0.00	30.143 
00:20	56.7	56.7	56.7	72	47.8	0	0	---	0.00	30.143 
00:25	56.5	56.5	56.5	73	47.9	0	0	---	0.00	30.144 
00:30	56.3	56.3	56.3	73	47.8	0	0	---	0.00	30.145 
00:35	56.0	56.0	56.0	73	47.5	0	0	---	0.00	30.145 
00:40	55.9	55.9	55.9	74	47.7	0	0	---	0.00	30.144 
00:45	55.7	55.7	55.7	74	47.5	0	0	---	0.00	30.142 
00:50	55.6	55.6	55.6	75	47.8	0	0	---	0.00	30.144 
00:55	55.4	55.4	55.4	74	47.3	0	0	---	0.00	30.147 
01:00	55.3	55.3	55.3	75	47.5	0	0	---	0.00	30.148 
01:05	55.1	55.1	55.1	75	47.3	0	0	---	0.00	30.149 
01:10	55.0	55.0	55.0	77	47.9	0	0	---	0.00	30.151 
01:15	54.8	54.8	54.8	77	47.7	0	0	---	0.00	30.154 
01:20	54.7	54.7	54.7	77	47.6	0	0	---	0.00	30.155 
01:25	54.5	54.5	54.5	77	47.4	0	0	---	0.00	30.151 
01:30	54.5	54.5	54.5	77	47.4	0	0	---	0.00	30.150 
01:35	54.5	54.5	54.5	77	47.4	0	0	---	0.00	30.149 
01:40	54.4	54.4	54.4	77	47.3	0	0	---	0.00	30.148 
01:45	54.2	54.2	54.2	78	47.5	0	0	---	0.00	30.147 
01:50	54.1	54.1	54.1	78	47.4	0	0	---	0.00	30.146 
01:55	53.9	53.9	53.9	79	47.5	0	0	---	0.00	30.145 
02:00	53.8	53.8	53.8	79	47.4	0	0	---	0.00	30.143 
02:05	53.6	53.6	53.6	80	47.6	0	0	---	0.00	30.139 
02:10	53.5	53.5	53.5	81	47.8	0	0	---	0.00	30.141 
02:15	53.2	53.2	53.2	81	47.5	0	0	---	0.00	30.143 
02:20	53.2	53.2	53.2	82	47.8	0	0	---	0.00	30.144 
02:25	53.1	53.1	53.1	83	48.1	0	0	---	0.00	30.146 
02:30	52.9	52.9	52.9	83	47.9	0	0	---	0.00	30.147 
02:35	52.9	52.9	52.9	83	47.9	0	0	---	0.00	30.146 
02:40	52.8	52.8	52.8	84	48.1	0	0	---	0.00	30.146 
02:45	52.8	52.8	52.8	84	48.1	0	0	---	0.00	30.145 
02:50	52.6	52.6	52.6	84	47.9	0	0	---	0.00	30.145 
02:55	52.6	52.6	52.6	84	47.9	0	0	---	0.00	30.145 
03:00	52.5	52.5	52.5	84	47.8	0	0	---	0.00	30.147 
03:05	52.3	52.3	52.3	84	47.6	0	0	---	0.00	30.146 
03:10	52.2	52.2	52.2	84	47.5	0	0	---	0.00	30.145 
03:15	52.2	52.2	52.2	84	47.5	0	0	---	0.00	30.145 
03:20	52.0	52.0	52.0	84	47.3	0	0	---	0.00	30.146 
03:25	51.9	51.9	51.9	84	47.2	0	0	---	0.00	30.145 
03:30	51.7	51.7	51.7	85	47.3	0	0	---	0.00	30.145 
03:35	51.6	51.6	51.6	85	47.2	0	0	---	0.00	30.145 
03:40	51.6	51.6	51.6	86	47.5	0	0	---	0.00	30.143 
03:45	51.4	51.4	51.4	86	47.4	0	0	---	0.00	30.146 
03:50	51.3	51.3	51.3	86	47.3	0	0	---	0.00	30.146 
03:55	51.3	51.3	51.3	86	47.3	0	0	---	0.00	30.147 
04:00	51.1	51.1	51.1	87	47.4	0	0	---	0.00	30.146 
04:05	51.0	51.0	51.0	87	47.3	0	0	---	0.00	30.146 
04:10	51.0	51.0	51.0	87	47.3	0	0	---	0.00	30.148 
04:15	50.8	50.8	50.8	87	47.1	0	0	---	0.00	30.148 
04:20	50.8	50.8	50.8	88	47.4	0	0	---	0.00	30.149 
04:25	50.7	50.7	50.7	88	47.3	0	0	---	0.00	30.148 
04:30	50.7	50.7	50.7	88	47.3	0	0	---	0.00	30.148 
04:35	50.5	50.5	50.5	89	47.4	0	0	---	0.00	30.147 
04:40	50.5	50.5	50.5	89	47.4	0	0	---	0.00	30.144 
04:45	50.4	50.4	50.4	89	47.3	0	0	---	0.00	30.144 
04:50	50.2	50.2	50.2	89	47.1	0	0	---	0.00	30.147 
04:55	50.2	50.2	50.2	90	47.4	0	0	---	0.00	30.148 
05:00	50.1	50.1	50.1	90	47.3	0	0	---	0.00	30.145 
05:05	49.9	49.9	49.9	90	47.1	0	0	---	0.00	30.149 
05:10	49.9	49.9	49.9	91	47.4	0	0	---	0.00	30.150 
05:15	49.9	49.9	49.9	91	47.4	0	0	---	0.00	30.150 
05:20	49.9	49.9	49.9	91	47.4	0	0	---	0.00	30.152 
05:25	49.8	49.8	49.8	91	47.3	0	0	---	0.00	30.153 
05:30	49.8	49.8	49.8	92	47.6	0	0	---	0.00	30.152 
05:35	49.8	49.8	49.8	92	47.6	0	0	---	0.00	30.153 
05:40	49.8	49.8	49.8	92	47.6	0	0	---	0.00	30.157 
05:45	49.6	49.6	49.6	92	47.4	0	0	---	0.00	30.160 
05:50	49.6	49.6	49.6	92	47.4	0	0	---	0.00	30.160 
05:55	49.5	49.5	49.5	92	47.3	0	0	---	0.00	30.162 
06:00	49.5	49.5	49.5	92	47.3	0	0	---	0.00	30.162 
06:05	49.5	49.5	49.5	92	47.3	0	0	---	0.00	30.169 
06:10	49.4	49.4	49.4	92	47.2	0	0	---	0.00	30.172 
06:15	49.4	49.4	49.4	92	47.2	0	0	---	0.00	30.171 
06:20	49.4	49.4	49.4	92	47.2	0	0	---	0.00	30.171 
06:25	49.4	49.4	49.4	92	47.2	0	0	---	0.00	30.172 
06:30	49.4	49.4	49.4	92	47.2	0	0	---	0.00	30.172 
06:35	49.2	49.2	49.2	92	47.0	0	0	---	0.00	30.173 
06:40	49.2	49.2	49.2	92	47.0	0	0	---	0.00	30.173 
06:45	49.4	49.4	49.4	92	47.2	0	0	---	0.00	30.175 
06:50	49.4	49.4	49.4	92	47.2	0	0	---	0.00	30.177 
06:55	49.5	49.5	49.5	92	47.3	0	0	---	0.00	30.181 
07:00	49.6	49.6	49.6	92	47.4	0	0	---	0.00	30.182 
07:05	49.8	49.8	49.8	93	47.9	0	0	---	0.00	30.187 
07:10	50.1	50.1	50.1	93	48.2	0	0	---	0.00	30.187 
07:15	50.5	50.5	50.5	93	48.6	0	0	---	0.00	30.187 
07:20	51.1	51.1	51.1	92	48.9	0	0	---	0.00	30.188 
07:25	51.7	51.7	51.7	92	49.5	0	0	---	0.00	30.186 
07:30	52.5	52.5	52.5	90	49.7	0	0	---	0.00	30.186 
07:35	53.6	53.6	53.6	85	49.2	0	0	---	0.00	30.186 
07:40	54.7	54.7	54.7	81	49.0	0	0	---	0.00	30.184 
07:45	55.4	55.4	55.4	77	48.3	0	1	112	0.00	30.184 
07:50	56.0	56.0	56.0	75	48.2	0	1	112	0.00	30.184 
07:55	56.6	56.6	56.6	75	48.8	0	1	112	0.00	30.184 
08:00	57.0	57.0	57.0	72	48.1	0	2	112	0.00	30.185 
08:05	57.5	57.5	57.5	71	48.2	0	2	112	0.00	30.186 
08:10	58.0	58.0	58.0	70	48.3	0	1	112	0.00	30.186 
08:15	58.3	58.3	58.3	70	48.6	0	1	112	0.00	30.188 
08:20	58.7	58.7	58.7	70	48.9	0	1	112	0.00	30.189 
08:25	59.2	59.2	59.2	70	49.4	0	1	112	0.00	30.191 
08:30	59.8	59.8	59.8	68	49.2	0	1	112	0.00	30.190 
08:35	60.4	60.4	60.4	67	49.4	0	1	112	0.00	30.189 
08:40	61.2	61.2	61.2	66	49.7	0	2	112	0.00	30.193 
08:45	62.0	62.0	62.0	65	50.1	0	1	112	0.00	30.195 
08:50	62.9	62.9	62.9	64	50.5	0	2	112	0.00	30.194 
08:55	64.2	64.2	64.2	63	51.3	0	2	112	0.00	30.195 
09:00	65.3	65.3	65.3	60	51.1	1	3	135	0.00	30.193 
09:05	66.3	66.3	66.3	59	51.5	0	2	135	0.00	30.193 
09:10	67.1	67.1	67.1	56	50.9	1	2	135	0.00	30.193 
09:15	67.8	67.8	67.8	57	52.0	0	2	135	0.00	30.191 
09:20	68.4	68.4	68.4	55	51.6	1	3	135	0.00	30.192 
09:25	69.3	69.3	69.3	56	52.9	0	1	135	0.00	30.191 
09:30	70.1	70.1	70.1	54	52.7	0	2	135	0.00	30.190 
09:35	70.9	70.9	70.9	52	52.4	0	2	135	0.00	30.190 
09:40	71.1	71.1	71.1	51	52.0	1	3	112	0.00	30.190 
09:45	71.3	71.3	71.3	53	53.3	0	2	112	0.00	30.190 
09:50	72.3	72.3	72.3	51	53.1	0	2	112	0.00	30.188 
09:55	73.0	73.0	73.0	50	53.2	0	2	112	0.00	30.189 
10:00	73.5	73.5	73.5	51	54.2	0	2	112	0.00	30.186 
10:05	73.7	73.7	73.7	50	53.9	1	3	180	0.00	30.188 
10:10	73.7	73.7	73.7	48	52.8	1	4	248	0.00	30.188 
10:15	73.7	73.7	73.7	49	53.3	0	2	248	0.00	30.188 
10:20	74.4	74.4	74.4	49	54.0	1	3	248	0.00	30.186 
10:25	75.1	75.1	77.7	48	54.1	0	1	248	0.00	30.184 
10:30	75.8	75.8	77.9	47	54.1	1	3	158	0.00	30.183 
10:35	76.3	76.3	78.1	46	54.0	1	4	135	0.00	30.179 
10:40	76.3	76.3	78.1	46	54.0	1	3	68	0.00	30.181 
10:45	76.5	76.5	78.2	45	53.6	1	4	90	0.00	30.177 
10:50	76.7	76.7	78.4	47	54.9	1	3	90	0.00	30.174 
10:55	76.8	76.8	78.4	48	55.6	1	3	248	0.00	30.174 
11:00	77.2	77.2	78.6	46	54.8	1	4	90	0.00	30.172 
11:05	77.9	77.9	79.0	46	55.4	1	4	112	0.00	30.170 
11:10	78.5	78.5	79.5	48	57.2	1	3	270	0.00	30.169 
11:15	78.8	78.8	79.6	46	56.2	0	4	270	0.00	30.165 
11:20	78.8	78.8	79.5	45	55.6	1	5	90	0.00	30.165 
11:25	78.8	78.8	79.6	46	56.2	1	4	90	0.00	30.162 
11:30	79.4	79.4	79.9	45	56.2	1	3	112	0.00	30.160 
11:35	79.4	79.4	79.8	44	55.6	1	3	248	0.00	30.160 
11:40	79.6	79.6	80.0	45	56.4	1	4	112	0.00	30.159 
11:45	79.9	79.9	80.3	45	56.6	0	2	90	0.00	30.156 
11:50	80.3	80.3	80.7	46	57.6	1	4	338	0.00	30.156 
11:55	80.7	80.7	81.0	46	58.0	1	2	270	0.00	30.156 
12:00	81.2	81.2	81.1	43	56.5	1	3	270	0.00	30.155 
12:05	81.6	81.6	81.1	40	54.9	0	3	270	0.00	30.157 
12:10	82.2	82.2	82.1	44	58.1	0	3	270	0.00	30.155 
12:15	82.0	82.0	81.8	43	57.3	1	4	292	0.00	30.155 
12:20	81.6	81.6	81.0	39	54.2	2	5	90	0.00	30.156 
12:25	81.6	81.6	81.5	43	56.9	1	3	90	0.00	30.157 
12:30	82.0	82.0	81.2	38	53.9	1	3	225	0.00	30.157 
12:35	82.4	82.4	81.7	39	54.9	1	2	135	0.00	30.155 
12:40	82.8	82.8	82.2	40	56.0	0	2	135	0.00	30.152 
12:45	82.8	82.8	81.9	38	54.6	1	3	112	0.00	30.152 
12:50	82.8	82.8	81.8	37	53.8	1	4	112	0.00	30.152 
12:55	82.8	82.8	81.9	38	54.6	1	5	112	0.00	30.151 
13:00	82.8	82.8	82.0	39	55.3	0	2	112	0.00	30.146 
13:05	83.0	83.0	82.3	40	56.2	1	4	90	0.00	30.145 
13:10	83.0	83.0	81.7	35	52.5	1	4	90	0.00	30.143 
13:15	83.2	83.2	82.5	40	56.3	1	4	90	0.00	30.143 
13:20	83.2	83.2	82.3	38	54.9	1	3	112	0.00	30.142 
13:25	83.2	83.2	82.4	39	55.6	1	5	90	0.00	30.140 
13:30	83.4	83.4	82.7	40	56.5	1	4	90	0.00	30.139 
13:35	83.4	83.4	82.6	39	55.8	1	4	248	0.00	30.138 
13:40	83.8	83.8	83.1	40	56.9	1	4	90	0.00	30.136 
13:45	83.4	83.4	82.4	38	55.1	2	3	90	0.00	30.135 
13:50	83.4	83.4	83.0	42	57.9	1	4	90	0.00	30.134 
13:55	83.8	83.8	83.6	43	58.9	1	3	270	0.00	30.126 
14:00	84.1	84.1	83.2	39	56.4	1	4	45	0.00	30.123 
14:05	84.1	84.1	83.1	38	55.7	1	4	270	0.00	30.123 
14:10	84.0	84.0	83.0	38	55.6	2	4	90	0.00	30.122 
14:15	83.8	83.8	82.9	39	56.2	1	5	112	0.00	30.122 
14:20	84.0	84.0	83.3	40	57.0	0	2	225	0.00	30.123 
14:25	84.3	84.3	83.6	40	57.3	1	2	248	0.00	30.122 
14:30	84.5	84.5	83.8	40	57.5	1	5	112	0.00	30.120 
14:35	84.3	84.3	83.4	39	56.6	1	3	248	0.00	30.119 
14:40	84.3	84.3	83.6	40	57.3	1	3	248	0.00	30.118 
14:45	84.5	84.5	83.6	39	56.8	1	4	90	0.00	30.116 
14:50	84.3	84.3	83.6	40	57.3	1	3	158	0.00	30.115 
14:55	84.3	84.3	83.4	39	56.6	1	4	90	0.00	30.109 
15:00	84.5	84.5	83.6	39	56.8	1	3	112	0.00	30.105 
15:05	84.3	84.3	83.3	38	55.9	1	3	112	0.00	30.106 
15:10	84.3	84.3	83.3	38	55.9	1	5	90	0.00	30.106 
15:15	84.1	84.1	83.2	39	56.4	1	4	112	0.00	30.105 
15:20	84.1	84.1	83.1	38	55.7	2	9	135	0.00	30.104 
15:25	84.1	84.1	83.2	39	56.4	1	5	248	0.00	30.104 
15:30	84.1	84.1	83.4	40	57.1	1	3	90	0.00	30.104 
15:35	84.1	84.1	83.6	41	57.8	0	2	135	0.00	30.099 
15:40	84.3	84.3	83.9	42	58.7	0	3	248	0.00	30.098 
15:45	84.1	84.1	83.2	39	56.4	1	5	90	0.00	30.095 
15:50	84.0	84.0	83.1	39	56.3	2	7	90	0.00	30.094 
15:55	83.8	83.8	83.4	42	58.2	1	3	112	0.00	30.098 
16:00	83.6	83.6	82.8	39	56.0	2	7	112	0.00	30.099 
16:05	83.6	83.6	83.0	41	57.4	1	3	112	0.00	30.097 
16:10	83.6	83.6	83.2	42	58.0	0	4	225	0.00	30.095 
16:15	83.4	83.4	83.2	43	58.5	1	4	270	0.00	30.098 
16:20	83.2	83.2	82.7	41	57.0	1	3	270	0.00	30.098 
16:25	83.2	83.2	82.8	42	57.7	1	4	248	0.00	30.099 
16:30	83.2	83.2	83.0	43	58.3	1	3	90	0.00	30.098 
16:35	83.2	83.2	82.7	41	57.0	1	3	112	0.00	30.097 
16:40	83.2	83.2	82.8	42	57.7	1	2	112	0.00	30.097 
16:45	83.2	83.2	82.7	41	57.0	1	5	112	0.00	30.096 
16:50	83.0	83.0	82.5	41	56.8	2	4	112	0.00	30.095 
16:55	82.8	82.8	82.4	42	57.3	1	3	90	0.00	30.095 
17:00	82.8	82.8	82.4	42	57.3	1	2	90	0.00	30.094 
17:05	82.6	82.6	82.4	43	57.8	1	3	68	0.00	30.094 
17:10	82.6	82.6	82.4	43	57.8	1	4	90	0.00	30.094 
17:15	82.4	82.4	82.0	42	57.0	1	3	90	0.00	30.092 
17:20	82.4	82.4	82.2	43	57.6	1	3	90	0.00	30.094 
17:25	82.2	82.2	82.0	43	57.4	0	2	90	0.00	30.093 
17:30	82.0	82.0	81.8	43	57.3	0	2	90	0.00	30.095 
17:35	81.8	81.8	81.8	44	57.7	0	2	90	0.00	30.094 
17:40	81.6	81.6	81.7	45	58.2	1	3	112	0.00	30.093 
17:45	81.4	81.4	81.5	45	58.0	0	2	112	0.00	30.091 
17:50	81.2	81.2	81.5	46	58.4	0	2	112	0.00	30.090 
17:55	81.1	81.1	81.4	46	58.3	0	1	112	0.00	30.087 
18:00	80.7	80.7	81.1	47	58.6	0	3	112	0.00	30.084 
18:05	80.5	80.5	81.0	48	59.0	0	2	112	0.00	30.083 
18:10	80.1	80.1	80.8	49	59.2	0	2	112	0.00	30.082 
18:15	79.8	79.8	80.5	49	58.9	0	2	112	0.00	30.080 
18:20	79.2	79.2	80.1	50	58.9	0	1	112	0.00	30.082 
18:25	78.8	78.8	79.9	51	59.1	0	0	---	0.00	30.083 
18:30	78.5	78.5	79.7	52	59.4	0	0	---	0.00	30.083 
18:35	77.9	77.9	79.3	53	59.4	0	0	---	0.00	30.083 
18:40	77.4	77.4	79.0	54	59.4	0	1	112	0.00	30.082 
18:45	76.7	76.7	78.5	55	59.3	0	1	112	0.00	30.083 
18:50	76.1	76.1	78.1	56	59.2	0	1	112	0.00	30.083 
18:55	75.8	75.8	77.9	57	59.5	0	0	---	0.00	30.082 
19:00	75.4	75.4	77.7	57	59.1	0	0	---	0.00	30.085 
19:05	75.1	75.1	77.5	58	59.3	0	0	---	0.00	30.080 
19:10	74.7	74.7	74.7	59	59.4	0	0	---	0.00	30.082 
19:15	74.2	74.2	74.2	60	59.4	0	0	---	0.00	30.085 
19:20	73.9	73.9	73.9	61	59.6	0	1	158	0.00	30.084 
19:25	73.3	73.3	73.3	62	59.5	0	0	---	0.00	30.085 
19:30	72.8	72.8	72.8	62	59.0	0	0	---	0.00	30.088 
19:35	72.5	72.5	72.5	62	58.7	0	0	---	0.00	30.088 
19:40	72.1	72.1	72.1	63	58.8	0	0	---	0.00	30.095 
19:45	71.8	71.8	71.8	64	59.0	0	0	---	0.00	30.096 
19:50	71.6	71.6	71.6	65	59.2	0	0	---	0.00	30.096 
19:55	71.3	71.3	71.3	65	58.9	0	0	---	0.00	30.096 
20:00	70.9	70.9	70.9	65	58.5	0	0	---	0.00	30.095 
20:05	70.8	70.8	70.8	66	58.9	0	0	---	0.00	30.090 
20:10	70.6	70.6	70.6	66	58.7	0	0	---	0.00	30.090 
20:15	70.4	70.4	70.4	66	58.5	0	1	158	0.00	30.093 
20:20	70.4	70.4	70.4	66	58.5	0	0	---	0.00	30.093 
20:25	70.4	70.4	70.4	66	58.5	0	0	---	0.00	30.093 
20:30	70.6	70.6	70.6	65	58.2	0	0	---	0.00	30.093 
20:35	70.4	70.4	70.4	66	58.5	0	0	---	0.00	30.094 
20:40	70.3	70.3	70.3	67	58.8	0	1	158	0.00	30.094 
20:45	70.1	70.1	70.1	66	58.2	0	0	---	0.00	30.093 
20:50	70.1	70.1	70.1	66	58.2	0	1	158	0.00	30.093 
20:55	70.1	70.1	70.1	66	58.2	0	1	158	0.00	30.094 
21:00	70.3	70.3	70.3	66	58.4	0	1	158	0.00	30.095 
21:05	70.1	70.1	70.1	66	58.2	0	1	158	0.00	30.087 
21:10	70.1	70.1	70.1	66	58.2	0	1	158	0.00	30.087 
21:15	69.9	69.9	69.9	67	58.4	0	1	158	0.00	30.087 
21:20	69.6	69.6	69.6	68	58.6	0	0	---	0.00	30.087 
21:25	69.3	69.3	69.3	68	58.3	0	0	---	0.00	30.088 
21:30	68.8	68.8	68.8	69	58.2	0	0	---	0.00	30.088 
21:35	68.4	68.4	68.4	71	58.6	0	0	---	0.00	30.088 
21:40	67.9	67.9	67.9	72	58.5	0	1	158	0.00	30.087 
21:45	67.8	67.8	67.8	72	58.4	0	0	---	0.00	30.087 
21:50	67.6	67.6	67.6	73	58.6	0	0	---	0.00	30.087 
21:55	67.3	67.3	67.3	73	58.3	0	0	---	0.00	30.089 
22:00	67.1	67.1	67.1	74	58.5	0	0	---	0.00	30.091 
22:05	66.8	66.8	66.8	74	58.2	0	0	---	0.00	30.087 
22:10	66.6	66.6	66.6	75	58.4	0	0	---	0.00	30.086 
22:15	66.4	66.4	66.4	75	58.2	0	0	---	0.00	30.086 
22:20	66.3	66.3	66.3	76	58.5	0	0	---	0.00	30.086 
22:25	66.1	66.1	66.1	77	58.7	0	0	---	0.00	30.087 
22:30	66.0	66.0	66.0	77	58.6	0	0	---	0.00	30.087 
22:35	65.8	65.8	65.8	77	58.4	0	0	---	0.00	30.088 
22:40	65.6	65.6	65.6	77	58.2	0	0	---	0.00	30.087 
22:45	65.6	65.6	65.6	78	58.5	0	0	---	0.00	30.086 
22:50	65.5	65.5	65.5	78	58.5	0	0	---	0.00	30.086 
22:55	65.8	65.8	65.8	77	58.4	0	1	158	0.00	30.086 
23:00	66.3	66.3	66.3	75	58.1	0	1	158	0.00	30.087 
23:05	66.4	66.4	66.4	75	58.2	0	1	158	0.00	30.082 
23:10	66.8	66.8	66.8	74	58.2	1	2	158	0.00	30.081 
23:15	66.8	66.8	66.8	74	58.2	0	0	---	0.00	30.081 
23:20	66.6	66.6	66.6	75	58.4	0	0	---	0.00	30.079 
23:25	66.3	66.3	66.3	75	58.1	0	1	158	0.00	30.079 
23:30	66.0	66.0	66.0	76	58.2	0	2	158	0.00	30.080 
23:35	65.6	65.6	65.6	77	58.2	0	0	---	0.00	30.080 
23:40	65.3	65.3	65.3	77	57.9	0	0	---	0.00	30.079 
23:45	65.0	65.0	65.0	78	58.0	0	0	---	0.00	30.081 
23:50	64.7	64.7	64.7	79	58.0	0	0	---	0.00	30.081 
23:55	64.5	64.5	64.5	80	58.2	0	0	---	0.00	30.081 

CoCoRaHS
IN-AL-39
A2 Web Hosting
Creative Commons License
GoDaddy
Look for:

loaded 2017-12-13 19:53:17 • last modified 2010-11-18 10:43:29
Privacy PolicyDisclaimer
• wx.awcolley.com is powered by PmWiki v.2002016 •
• all content (unless otherwise noted) © 2017 A W Colley